Airway Heights, WA

12:24 PM PDT on September 01, 2014 (GMT -0700)
Spokane International | Change Station
CLOSE
Current Station
Airport
Location: Spokane,
Elevation: 2365 ft
Nearby Weather Stations

Elev 2365 ft 47.62 °N, 117.53 °W | Updated 31 minutes ago

Partly Cloudy
Partly Cloudy
65 °F
Feels Like 65 °F
N
10
Wind Variable Wind from SW
Gusts 21 mph

Today
High -- | Low -- °F
--% Chance of Precip.
Yesterday
High -- | Low -- °F
Precip. -- in
6:09 AM 7:30 PM
Waxing Crescent, 43% visible
Pressure 30.03 in
Visibility 10.0 miles
Clouds Few 5000 ft
Dew Point 40 °F
Humidity 40%
Rainfall 0.00 in
Snow Depth Not available.
UV 7 out of 12
Pollen 6.50 out of 12
PM2.5 Good
Flu Activity Not available.
METAR KGEG 011853Z 23009G18KT 190V270 10SM FEW050 18/04 A3004 RMK AO2 SLP167 T01830044

More Conditions Fewer Conditions

Pressure 30.03 in
Visibility 10.0 miles
Clouds Few 5000 ft
Dew Point 40 °F
Humidity 40%
Rainfall 0.00 in
Snow Depth Not available.
UV 7 out of 12
Pollen 6.50 out of 12
PM2.5 Good
Flu Activity Not available.
METAR KGEG 011853Z 23009G18KT 190V270 10SM FEW050 18/04 A3004 RMK AO2 SLP167 T01830044

More Conditions Fewer Conditions

10-Day Weather Forecast

Almanac

Astronomy

Sep. 01, 2014 Rise Set
Actual Time 6:09 AM PDT 7:30 PM PDT
Civil Twilight 5:37 AM PDT 8:02 PM PDT
Nautical Twilight 4:58 AM PDT 8:41 PM PDT
Astronomical Twilight 4:16 AM PDT 9:22 PM PDT
Moon 1:28 PM PDT 11:06 PM PDT
Length of Visible Light 14h 25m
Length of Day
13h 21m
Tomorrow will be 3m 20s shorter.
Waxing Crescent, 43% of the Moon is Illuminated
Today
Waxing Crescent
Sep 2
First Quarter
Sep 8
Full
Sep 15
Last Quarter
Sep 24
New

Today's Extremes

State Highs State Lows

Community

WunderPhotos

Upload Photos

1,749,378 photos uploaded!

WunderBlogs® & News

Nearby

Air Quality

  Air Quality AQ Index Pollutant
Yesterday Good
OZONE
Yesterday Good
PM10
Current Good
PM2.5
Monday Good
PM10
Monday Good
OZONE

Snow Depth

Station Depth Elevation
Quartz Peak 1 in 4700 ft
Bunchgrass Meadow 0 in 5000 ft
Moses Mountain 1 in 5300 ft
Sentinel Butte 0 in 4920 ft
Spruce Springs 0 in 5700 ft

Earthquake Activity

City Distance Mag. Time & Date
No recent earthquake activity has been reported nearby.
Minimum magnitude displayed is 2.5.

Coastal Water Temperatures

Place Temperature
No Stations Reporting

Nearby Weather Stations